createdAt,value
2022-08-26T00:03:44.397Z,9.02
2022-08-26T00:13:46.835Z,9.70
2022-08-26T00:23:50.914Z,10.27
2022-08-26T00:33:52.228Z,12.40
2022-08-26T00:43:53.532Z,10.93
2022-08-26T00:53:57.611Z,9.85
2022-08-26T01:03:59.600Z,10.85
2022-08-26T01:14:02.874Z,13.57
2022-08-26T01:24:04.561Z,14.00
2022-08-26T01:34:10.322Z,14.38
2022-08-26T01:44:15.286Z,15.27
2022-08-26T01:54:16.670Z,20.02
2022-08-26T02:04:21.779Z,16.40
2022-08-26T02:14:26.845Z,12.88
2022-08-26T02:24:30.482Z,15.15
2022-08-26T02:34:33.119Z,12.73
2022-08-26T02:44:34.508Z,15.00
2022-08-26T02:54:35.819Z,12.30
2022-08-26T03:04:38.029Z,15.98
2022-08-26T03:14:40.601Z,14.20
2022-08-26T03:24:42.256Z,13.32
2022-08-26T03:34:47.537Z,13.63
2022-08-26T03:44:49.369Z,17.98
2022-08-26T03:54:50.977Z,13.35
2022-08-26T04:04:52.281Z,14.48
2022-08-26T04:14:53.891Z,14.15
2022-08-26T04:24:55.222Z,22.45
2022-08-26T04:34:57.362Z,16.33
2022-08-26T04:44:59.355Z,14.43
2022-08-26T04:55:00.683Z,15.25
2022-08-26T05:05:02.222Z,13.77
2022-08-26T05:15:03.852Z,15.05
2022-08-26T05:25:06.768Z,14.82
2022-08-26T05:35:08.926Z,14.10
2022-08-26T05:45:10.633Z,13.93
2022-08-26T05:55:12.327Z,14.75
2022-08-26T06:05:14.558Z,15.68
2022-08-26T06:15:16.751Z,16.48
2022-08-26T06:25:18.064Z,16.50
2022-08-26T06:35:19.335Z,16.00
2022-08-26T06:45:20.646Z,13.38
2022-08-26T06:55:21.948Z,15.00
2022-08-26T07:05:28.396Z,14.48
2022-08-26T07:15:31.481Z,11.90
2022-08-26T07:25:33.235Z,13.73
2022-08-26T07:35:34.549Z,13.63
2022-08-26T07:45:36.039Z,12.48
2022-08-26T07:55:37.372Z,15.15
2022-08-26T08:05:41.196Z,15.95
2022-08-26T08:15:42.824Z,14.15
2022-08-26T08:25:44.122Z,17.48
2022-08-26T08:35:45.530Z,15.73
2022-08-26T08:45:52.999Z,17.80
2022-08-26T08:56:00.556Z,17.85
2022-08-26T09:06:06.144Z,18.25
2022-08-26T09:16:18.945Z,12.75
2022-08-26T09:26:29.260Z,13.95
2022-08-26T09:36:42.413Z,18.40
2022-08-26T09:46:52.236Z,11.88
2022-08-26T09:57:09.716Z,8.90
2022-08-26T10:07:30.984Z,12.68
2022-08-26T10:17:36.194Z,7.95
2022-08-26T10:27:51.200Z,7.47
2022-08-26T10:38:02.665Z,8.38
2022-08-26T10:48:08.756Z,8.50
2022-08-26T10:58:28.993Z,14.25
2022-08-26T11:08:31.482Z,15.43
2022-08-26T11:18:37.117Z,11.27
2022-08-26T11:28:44.162Z,7.50
2022-08-26T11:38:45.709Z,11.07
2022-08-26T11:48:47.052Z,11.65
2022-08-26T11:58:48.888Z,10.20
2022-08-26T12:08:51.760Z,11.02
2022-08-26T12:18:53.121Z,12.02
2022-08-26T12:28:54.457Z,17.05
2022-08-26T12:38:58.310Z,12.77
2022-08-26T12:49:00.118Z,9.82
2022-08-26T12:59:02.811Z,11.13
2022-08-26T13:09:24.067Z,13.20
2022-08-26T13:19:25.461Z,14.93
2022-08-26T13:29:26.805Z,10.77
2022-08-26T13:39:28.356Z,9.07
2022-08-26T13:49:29.664Z,12.48
2022-08-26T13:59:30.992Z,10.02
2022-08-26T14:09:35.441Z,9.88
2022-08-26T14:19:42.498Z,10.50
2022-08-26T14:29:43.805Z,12.68
2022-08-26T14:39:45.284Z,12.38
2022-08-26T14:49:46.589Z,12.13
2022-08-26T14:59:49.695Z,10.13
2022-08-26T15:09:51.518Z,12.27
2022-08-26T15:19:52.816Z,11.52
2022-08-26T15:29:54.127Z,18.55
2022-08-26T15:39:55.516Z,22.38
2022-08-26T15:49:56.868Z,27.23
2022-08-26T15:59:58.174Z,24.77
2022-08-26T16:09:59.470Z,26.08
2022-08-26T16:20:00.899Z,26.58
2022-08-26T16:30:04.573Z,23.92
2022-08-26T16:40:06.340Z,22.40
2022-08-26T16:50:07.861Z,16.80
2022-08-26T17:00:11.562Z,18.30
2022-08-26T17:10:13.168Z,7.45
2022-08-26T17:20:15.529Z,4.65
2022-08-26T17:30:17.175Z,7.22
2022-08-26T17:40:19.781Z,3.90
2022-08-26T17:50:21.527Z,5.28
2022-08-26T18:00:23.751Z,4.68
2022-08-26T18:10:25.029Z,4.75
2022-08-26T18:20:26.364Z,5.30
2022-08-26T18:30:27.702Z,6.25
2022-08-26T18:40:29.065Z,7.50
2022-08-26T18:50:30.418Z,7.38
2022-08-26T19:00:31.709Z,7.38
2022-08-26T19:10:36.759Z,11.10
2022-08-26T19:20:43.487Z,10.68
2022-08-26T19:30:51.305Z,11.68
2022-08-26T19:40:54.484Z,10.70
2022-08-26T19:50:55.792Z,10.07
2022-08-26T20:00:57.141Z,11.10
2022-08-26T20:11:02.249Z,10.10
2022-08-26T20:21:03.597Z,9.77
2022-08-26T20:31:04.982Z,9.95
2022-08-26T20:41:06.330Z,12.48
2022-08-26T20:51:07.654Z,9.88
2022-08-26T21:01:15.549Z,9.40
2022-08-26T21:11:16.924Z,9.90
2022-08-26T21:21:18.259Z,11.68
2022-08-26T21:31:26.599Z,12.85
2022-08-26T21:41:28.316Z,10.75
2022-08-26T21:51:32.907Z,9.07
2022-08-26T22:01:34.890Z,15.68
2022-08-26T22:11:36.524Z,11.20
2022-08-26T22:21:37.813Z,16.50
2022-08-26T22:31:39.172Z,11.52
2022-08-26T22:41:41.262Z,17.48
2022-08-26T22:51:43.267Z,14.57
2022-08-26T23:01:44.687Z,18.98
2022-08-26T23:11:46.719Z,17.88
2022-08-26T23:21:48.707Z,18.55
2022-08-26T23:31:50.112Z,15.82
2022-08-26T23:41:51.881Z,16.02
2022-08-26T23:51:53.289Z,13.82
